Terminal Aerodrome Forecast
Issued by NWS

Home | Current Version | Previous Version | Graphics & Text | Print | Product List | Glossary On
Versions: 1 2 3 4 5 6 7 8 9 10 11 12 13 14 15 16
916
FTUS43 KMPX 211503 AAA
TAFRNH
TAF AMD
KRNH 211503Z 2115/2212 16012G18KT 6SM -SHRA BKN015 OVC025
     FM211700 17013G22KT P6SM OVC016
     FM220100 18011KT 6SM -SHRA VCTS OVC020CB
     FM220330 24008KT P6SM SCT020 BKN040=

USA.gov is the U.S. government's official web portal to all federal, state and local government web resources and services.